Alice, North Dakota
Current Conditions -  °F | °C
As of 2:15 AM on Sunday 26 Oct 2014 (Local Time) from KBAC Reporting Station
Clear Clear  
Wind Chill:   Ceiling: Unl
Heat Index:   Visibility: 10mi
Dew Point: -3°   Wind: 3mph
Humidity: 65%   Direction: 160°SSE
Pressure: 29.95"   Gusts: NA
Location:  46.7681°N, 97.6777°W
Report Text: KBAC 260715Z AUTO 16003KT 10SM CLR 03/M03 A2995 RMK AO2
Loading
Personal Weather Stations






























Interactive Weather Map
Tropical Storm Tracking
New forecast layout! Learn more

10-Day Weather Forecast

Advertisements
Track Severe Weather on mobile